Terminal Aerodrome Forecast
Issued by NWS Shreveport, LA

Home | Current Version | Previous Version | Text Only | Print | Product List | Glossary On
Versions: 1 2 3 4 5 6 7 8 9 10 11 12 13 14 15
589
FTUS44 KSHV 262327
TAFSHV
TAF
KSHV 262327Z 2700/2724 11003KT P6SM FEW060 SCT250
      TEMPO 2712/2714 5SM HZ BKN015
     FM271400 VRB04KT P6SM SCT020 BKN100 BKN250
     FM271700 VRB06KT P6SM VCTS BKN040CB BKN100 BKN250=

USA.gov is the U.S. government's official web portal to all federal, state and local government web resources and services.